KMHV/MHV METAR and TAF weather

Enter ICAO airport designator
Station Type Date Time Source
KMHV METAR 2020/01/21 18:20 UTC NOAA

KMHV 211820Z AUTO 29009G17KT 10SM CLR 11/01 A3010 RMK A01


Station Type Date Time Source
KMHV Decoded METAR 2020/01/21 18:20 UTC NOAA

Mojave, CA, United States (KMHV) 35-04N 118-09W
Jan 21, 2020 - 01:20 PM EST / 2020.01.21 1820 UTC
Wind: from the WNW (290 degrees) at 10 MPH (9 KT) gusting to 20 MPH (17 KT):0
Visibility: 10 mile(s):0
Sky conditions: clear
Temperature: 51 F (11 C)
Dew Point: 33 F (1 C)
Relative Humidity: 50%
Pressure (altimeter): 30.1 in. Hg (1019 hPa)
ob: KMHV 211820Z AUTO 29009G17KT 10SM CLR 11/01 A3010 RMK A01
cycle: 18

Station Type Date Time Source
KMHV TAF UTC NOAA

Error!

Example: see airport list